Time;durP1;ratioP1;P1;durP2;ratioP2;P2;SDS_P1;SDS_P2;PMS_P1;PMS_P2;Temp;Humidity;BMP_temperature;BMP_pressure;BME280_temperature;BME280_humidity;BME280_pressure;Samples;Min_cycle;Max_cycle;Signal;HPM_P1;HPM_P2
2023/09/12 00:00:07;;;;;;;81.65;41.38;;;;;;;;;;4951504;29;20051;-85
2023/09/12 00:03:01;;;;;;;74.70;41.42;;;;;;;;;;4961951;29;20039;-87
2023/09/12 00:05:36;;;;;;;83.63;44.63;;;;;;;;;;4963170;29;20055;-87
2023/09/12 00:08:24;;;;;;;78.75;43.85;;;;;;;;;;4962414;29;20059;-86
2023/09/12 00:11:00;;;;;;;88.57;45.45;;;;;;;;;;4962046;29;20142;-86
2023/09/12 00:13:28;;;;;;;90.75;47.22;;;;;;;;;;4961317;29;20035;-86
2023/09/12 00:15:57;;;;;;;101.10;50.95;;;;;;;;;;4945610;29;20094;-87
2023/09/12 00:18:28;;;;;;;106.68;52.25;;;;;;;;;;4960196;29;20051;-87
2023/09/12 00:21:09;;;;;;;97.38;48.95;;;;;;;;;;4959320;29;20048;-87
2023/09/12 00:23:38;;;;;;;93.80;47.58;;;;;;;;;;4959380;29;20074;-86
2023/09/12 00:26:06;;;;;;;114.97;49.47;;;;;;;;;;4962148;29;20390;-88
2023/09/12 00:28:40;;;;;;;107.97;49.22;;;;;;;;;;5000177;23;20044;-85
2023/09/12 00:31:21;;;;;;;98.00;46.53;;;;;;;;;;4927603;28;20028;-88
2023/09/12 00:34:02;;;;;;;105.20;48.03;;;;;;;;;;4939235;28;20031;-87
2023/09/12 00:36:29;;;;;;;102.00;48.78;;;;;;;;;;4924288;29;20429;-87
2023/09/12 00:38:56;;;;;;;100.28;49.28;;;;;;;;;;4926961;29;20052;-86
2023/09/12 00:41:24;;;;;;;104.25;50.75;;;;;;;;;;4925886;29;20059;-87
2023/09/12 00:43:52;;;;;;;97.10;48.40;;;;;;;;;;4926463;29;20087;-86
2023/09/12 00:46:21;;;;;;;86.80;45.25;;;;;;;;;;4925451;29;20056;-86
2023/09/12 00:48:50;;;;;;;99.82;49.67;;;;;;;;;;4928349;29;20075;-87
2023/09/12 00:51:18;;;;;;;100.80;49.65;;;;;;;;;;4909347;29;20060;-87
2023/09/12 00:53:48;;;;;;;101.70;47.72;;;;;;;;;;4912343;29;20056;-87
2023/09/12 00:56:17;;;;;;;93.72;47.78;;;;;;;;;;4911085;29;20060;-86
2023/09/12 00:58:45;;;;;;;99.93;49.55;;;;;;;;;;4910434;29;20064;-86
2023/09/12 01:01:12;;;;;;;102.82;47.30;;;;;;;;;;4911695;29;20044;-87
2023/09/12 01:03:43;;;;;;;99.72;48.67;;;;;;;;;;4928909;29;20292;-88
2023/09/12 01:06:10;;;;;;;102.63;50.40;;;;;;;;;;4929462;29;20067;-86
2023/09/12 01:08:38;;;;;;;98.13;49.55;;;;;;;;;;4918718;29;20188;-86
2023/09/12 01:11:06;;;;;;;104.45;47.92;;;;;;;;;;4925831;29;20049;-87
2023/09/12 01:13:33;;;;;;;104.68;48.08;;;;;;;;;;4925671;29;20060;-86
2023/09/12 01:16:00;;;;;;;103.65;49.78;;;;;;;;;;4924972;29;20035;-86
2023/09/12 01:18:27;;;;;;;109.60;51.83;;;;;;;;;;4925291;29;20143;-87
2023/09/12 01:21:12;;;;;;;98.60;49.40;;;;;;;;;;4938165;29;20067;-86
2023/09/12 01:23:40;;;;;;;93.75;48.20;;;;;;;;;;4908387;29;20405;-85
2023/09/12 01:26:18;;;;;;;88.82;47.03;;;;;;;;;;4908898;29;20056;-86
2023/09/12 01:28:47;;;;;;;102.63;51.50;;;;;;;;;;4924188;29;20064;-86
2023/09/12 01:31:15;;;;;;;96.43;51.45;;;;;;;;;;4922538;29;20056;-86
2023/09/12 01:33:42;;;;;;;109.90;53.78;;;;;;;;;;4924107;29;20064;-86
2023/09/12 01:36:10;;;;;;;96.55;52.72;;;;;;;;;;4923160;29;20067;-86
2023/09/12 01:38:37;;;;;;;108.60;56.22;;;;;;;;;;4925656;29;20062;-85
2023/09/12 01:41:04;;;;;;;94.28;51.88;;;;;;;;;;4936482;29;20123;-86
2023/09/12 01:43:34;;;;;;;93.68;50.00;;;;;;;;;;4909377;29;20119;-87
2023/09/12 01:46:01;;;;;;;97.95;50.65;;;;;;;;;;4907637;29;20052;-86
2023/09/12 01:48:34;;;;;;;95.07;52.88;;;;;;;;;;4944076;29;20115;-86
2023/09/12 01:51:04;;;;;;;99.30;52.28;;;;;;;;;;4927148;29;20055;-87
2023/09/12 01:53:33;;;;;;;95.72;52.42;;;;;;;;;;4926959;29;20051;-86
2023/09/12 01:56:01;;;;;;;92.18;48.78;;;;;;;;;;4925907;29;20052;-87
2023/09/12 01:58:30;;;;;;;78.35;43.95;;;;;;;;;;4940404;29;20051;-87
2023/09/12 02:00:58;;;;;;;93.97;49.45;;;;;;;;;;4925779;29;20409;-86
2023/09/12 02:03:25;;;;;;;93.80;51.80;;;;;;;;;;4926475;29;20122;-86
2023/09/12 02:05:52;;;;;;;110.20;52.63;;;;;;;;;;4923994;29;20316;-86
2023/09/12 02:08:28;;;;;;;96.80;48.30;;;;;;;;;;4942115;29;20080;-86
2023/09/12 02:10:55;;;;;;;;;;;;;;;;;;4944865;29;20059;-86
2023/09/12 02:13:22;;;;;;;;;;;;;;;;;;4953089;29;19923;-86
2023/09/12 02:15:49;;;;;;;;;;;;;;;;;;4946330;29;19910;-86
2023/09/12 02:18:16;;;;;;;72.43;40.45;;;;;;;;;;4943305;29;19933;-86
2023/09/12 02:20:46;;;;;;;81.60;45.88;;;;;;;;;;4950442;28;20040;-86
2023/09/12 02:23:25;;;;;;;79.90;43.40;;;;;;;;;;4945114;29;20087;-87
2023/09/12 02:25:55;;;;;;;85.45;45.53;;;;;;;;;;4944910;29;20201;-87
2023/09/12 02:28:23;;;;;;;93.25;50.38;;;;;;;;;;4926678;29;20060;-86
2023/09/12 02:30:50;;;;;;;91.60;48.38;;;;;;;;;;4943189;29;20055;-86
2023/09/12 02:33:18;;;;;;;99.07;51.38;;;;;;;;;;4926408;29;20066;-86
2023/09/12 02:35:49;;;;;;;97.22;50.60;;;;;;;;;;4943528;29;20056;-86
2023/09/12 02:38:21;;;;;;;90.82;49.97;;;;;;;;;;4937759;29;20079;-86
2023/09/12 02:40:48;;;;;;;99.28;50.05;;;;;;;;;;4938626;29;20063;-86
2023/09/12 02:43:16;;;;;;;89.25;48.42;;;;;;;;;;4946626;29;20052;-86
2023/09/12 02:45:43;;;;;;;89.65;50.38;;;;;;;;;;4944388;29;20051;-86
2023/09/12 02:48:10;;;;;;;83.10;47.38;;;;;;;;;;4942467;29;20048;-86
2023/09/12 02:50:37;;;;;;;83.43;45.90;;;;;;;;;;4945303;29;20052;-87
2023/09/12 02:53:04;;;;;;;81.70;47.10;;;;;;;;;;4944173;29;20114;-86
2023/09/12 02:55:31;;;;;;;91.30;50.08;;;;;;;;;;4944118;29;20134;-85
2023/09/12 02:57:58;;;;;;;98.93;51.45;;;;;;;;;;4943059;29;20060;-86
2023/09/12 03:00:29;;;;;;;105.32;54.58;;;;;;;;;;4927193;29;20107;-86
2023/09/12 03:02:58;;;;;;;95.53;52.33;;;;;;;;;;4942716;29;20068;-86
2023/09/12 03:05:27;;;;;;;85.85;48.13;;;;;;;;;;4941674;29;20332;-87
2023/09/12 03:07:57;;;;;;;92.55;49.53;;;;;;;;;;4939690;29;20055;-86
2023/09/12 03:10:24;;;;;;;102.97;54.17;;;;;;;;;;4940899;29;20123;-86
2023/09/12 03:12:51;;;;;;;101.00;52.90;;;;;;;;;;4940511;29;20056;-86
2023/09/12 03:15:18;;;;;;;96.90;52.85;;;;;;;;;;4941655;29;20059;-86
2023/09/12 03:17:45;;;;;;;96.18;50.70;;;;;;;;;;4943352;29;20059;-86
2023/09/12 03:20:12;;;;;;;94.85;51.60;;;;;;;;;;4937930;29;20408;-86
2023/09/12 03:22:39;;;;;;;97.75;52.75;;;;;;;;;;4937182;29;20047;-86
2023/09/12 03:25:06;;;;;;;97.95;51.83;;;;;;;;;;4923753;29;20056;-86
2023/09/12 04:41:06;;;;;;;82.72;44.30;;;;;;;;;;5222982;23;20425;-88
2023/09/12 04:44:02;;;;;;;86.13;45.03;;;;;;;;;;4946965;28;20039;-89
2023/09/12 04:47:02;;;;;;;76.15;40.50;;;;;;;;;;4946720;28;20019;-89
2023/09/12 04:52:15;;;;;;;66.40;36.60;;;;;;;;;;4960368;28;20060;-88
2023/09/12 04:55:06;;;;;;;88.57;46.20;;;;;;;;;;4978673;28;20039;-90
2023/09/12 04:57:50;;;;;;;83.97;44.55;;;;;;;;;;5275830;23;20051;-88
2023/09/12 05:00:31;;;;;;;102.05;52.67;;;;;;;;;;4945966;28;20054;-89
2023/09/12 05:11:31;;;;;;;106.47;51.22;;;;;;;;;;4876636;23;20034;-87
2023/09/12 05:14:18;;;;;;;86.88;45.28;;;;;;;;;;5023095;23;20055;-89
2023/09/12 05:19:34;;;;;;;98.27;50.97;;;;;;;;;;5478175;23;20082;-88
2023/09/12 05:22:16;;;;;;;91.30;47.15;;;;;;;;;;4963694;28;20059;-89
2023/09/12 05:35:52;;;;;;;91.72;49.35;;;;;;;;;;5998176;23;20022;-88
2023/09/12 07:24:15;;;;;;;77.05;45.30;;;;;;;;;;5098871;23;20017;-84
2023/09/12 08:52:41;;;;;;;26.87;19.27;;;;;;;;;;1416150;23;21174;-87
2023/09/12 08:55:23;;;;;;;25.48;18.85;;;;;;;;;;4912132;29;20449;-86
2023/09/12 08:58:18;;;;;;;26.48;19.15;;;;;;;;;;4931612;29;20168;-86
2023/09/12 09:01:10;;;;;;;27.05;19.30;;;;;;;;;;4918678;29;20021;-86
2023/09/12 09:04:26;;;;;;;30.00;19.25;;;;;;;;;;4926628;29;20078;-87
2023/09/12 09:07:50;;;;;;;25.25;17.25;;;;;;;;;;4931356;29;20063;-86
2023/09/12 09:11:05;;;;;;;25.65;17.52;;;;;;;;;;5129663;23;20094;-87
2023/09/12 09:14:13;;;;;;;24.63;17.50;;;;;;;;;;4968681;28;20051;-87
2023/09/12 09:17:17;;;;;;;20.10;14.88;;;;;;;;;;4968862;29;20047;-85
2023/09/12 09:27:42;;;;;;;26.38;18.27;;;;;;;;;;4945877;29;20138;-85
2023/09/12 09:30:50;;;;;;;25.30;15.90;;;;;;;;;;4950544;28;20227;-86
2023/09/12 09:34:01;;;;;;;24.35;16.10;;;;;;;;;;4987344;23;20047;-87
2023/09/12 09:37:15;;;;;;;23.65;16.67;;;;;;;;;;5757584;23;20177;-86
2023/09/12 09:40:18;;;;;;;25.30;16.95;;;;;;;;;;4949821;29;20035;-84
2023/09/12 09:43:44;;;;;;;27.00;17.30;;;;;;;;;;4950431;28;20040;-85
2023/09/12 09:46:26;;;;;;;28.27;19.05;;;;;;;;;;4931463;29;20039;-87
2023/09/12 09:49:26;;;;;;;26.52;19.23;;;;;;;;;;4936615;28;20138;-85
2023/09/12 09:54:50;;;;;;;35.15;22.60;;;;;;;;;;5025142;23;20131;-86
2023/09/12 09:57:52;;;;;;;30.33;22.40;;;;;;;;;;4957894;29;20031;-86
2023/09/12 10:01:15;;;;;;;35.67;23.98;;;;;;;;;;4973910;28;20047;-87
2023/09/12 12:55:21;;;;;;;26.08;17.17;;;;;;;;;;4969709;29;20047;-86
2023/09/12 12:58:09;;;;;;;21.52;15.65;;;;;;;;;;4948051;29;20097;-88
2023/09/12 13:01:14;;;;;;;20.65;13.95;;;;;;;;;;4952011;28;20046;-89
2023/09/12 13:04:19;;;;;;;19.27;11.88;;;;;;;;;;4968361;23;20055;-89
2023/09/12 13:07:15;;;;;;;14.80;10.40;;;;;;;;;;5362480;23;20026;-86
2023/09/12 13:10:27;;;;;;;16.35;11.23;;;;;;;;;;4907381;29;20071;-87
2023/09/12 13:16:59;;;;;;;15.32;9.95;;;;;;;;;;4954017;29;20058;-85
2023/09/12 14:48:36;;;;;;;24.80;14.05;;;;;;;;;;4967470;29;20055;-88
2023/09/12 15:30:36;;;;;;;24.33;14.57;;;;;;;;;;4945765;29;20052;-88
2023/09/12 15:33:38;;;;;;;22.25;14.35;;;;;;;;;;4933211;29;20487;-88
2023/09/12 15:36:22;;;;;;;22.80;14.45;;;;;;;;;;4932360;28;20036;-87
2023/09/12 15:39:13;;;;;;;16.50;12.23;;;;;;;;;;4934583;29;20454;-88
2023/09/12 15:41:58;;;;;;;19.30;13.65;;;;;;;;;;4948715;28;20056;-88
2023/09/12 15:44:58;;;;;;;20.67;13.27;;;;;;;;;;4933999;29;20058;-88
2023/09/12 15:47:44;;;;;;;23.08;14.98;;;;;;;;;;4951476;29;20047;-89
2023/09/12 15:50:50;;;;;;;20.65;14.52;;;;;;;;;;4948885;29;20040;-87
2023/09/12 15:54:03;;;;;;;19.35;13.05;;;;;;;;;;4922495;29;20043;-89
2023/09/12 15:57:14;;;;;;;23.52;13.27;;;;;;;;;;4949835;29;20066;-88
2023/09/12 16:00:21;;;;;;;20.27;13.65;;;;;;;;;;4938575;29;20043;-89
2023/09/12 16:38:55;;;;;;;23.58;15.23;;;;;;;;;;4912125;29;20117;-87
2023/09/12 16:42:08;;;;;;;21.65;14.90;;;;;;;;;;4912194;29;20066;-88
2023/09/12 16:44:59;;;;;;;24.48;15.15;;;;;;;;;;4916187;29;20044;-87
2023/09/12 16:47:47;;;;;;;19.55;14.32;;;;;;;;;;4900132;29;20056;-88
2023/09/12 16:50:57;;;;;;;23.10;15.40;;;;;;;;;;4915656;29;20040;-87
2023/09/12 17:19:31;;;;;;;21.75;15.35;;;;;;;;;;4951718;28;20043;-88
2023/09/12 17:22:50;;;;;;;23.23;15.43;;;;;;;;;;4953675;29;20270;-88
2023/09/12 17:26:08;;;;;;;24.17;15.68;;;;;;;;;;4936521;29;20083;-89
2023/09/12 17:29:22;;;;;;;23.33;15.15;;;;;;;;;;4953644;29;20103;-89
2023/09/12 17:32:34;;;;;;;26.30;14.32;;;;;;;;;;4953416;29;20063;-88
2023/09/12 17:35:30;;;;;;;27.20;16.50;;;;;;;;;;4941774;29;20055;-88
2023/09/12 17:47:06;;;;;;;26.00;17.93;;;;;;;;;;4985134;23;20086;-88
2023/09/12 17:49:59;;;;;;;26.95;16.65;;;;;;;;;;4955771;29;20048;-88
2023/09/12 17:53:00;;;;;;;28.10;17.52;;;;;;;;;;4941031;29;20043;-88
2023/09/12 17:55:48;;;;;;;27.52;16.95;;;;;;;;;;4945195;29;20079;-87
2023/09/12 17:59:12;;;;;;;24.67;17.40;;;;;;;;;;4948004;29;20506;-87
2023/09/12 18:02:37;;;;;;;34.05;17.98;;;;;;;;;;4941448;29;20111;-89
2023/09/12 18:10:40;;;;;;;26.90;16.95;;;;;;;;;;5561174;23;20519;-89
2023/09/12 18:13:37;;;;;;;31.08;20.63;;;;;;;;;;4948199;28;20032;-91
2023/09/12 18:29:03;;;;;;;31.42;19.95;;;;;;;;;;5490891;23;20047;-89
2023/09/12 18:31:51;;;;;;;27.17;18.38;;;;;;;;;;4934308;29;20052;-90
2023/09/12 18:49:42;;;;;;;35.97;21.45;;;;;;;;;;5016206;23;20034;-90
2023/09/12 18:52:25;;;;;;;31.70;20.60;;;;;;;;;;4940872;29;20043;-90
2023/09/12 18:55:11;;;;;;;31.98;19.30;;;;;;;;;;4940619;29;20035;-89
2023/09/12 18:58:00;;;;;;;30.50;19.58;;;;;;;;;;4880936;29;20045;-89
2023/09/12 19:00:50;;;;;;;30.33;20.95;;;;;;;;;;4865665;29;20029;-91
2023/09/12 19:03:30;;;;;;;37.50;21.90;;;;;;;;;;4865647;29;20156;-90
2023/09/12 19:06:16;;;;;;;34.85;23.95;;;;;;;;;;4865332;29;20049;-89
2023/09/12 19:08:59;;;;;;;37.50;23.48;;;;;;;;;;4866238;29;20038;-90
2023/09/12 19:21:06;;;;;;;31.25;20.30;;;;;;;;;;4378837;23;20074;-89
2023/09/12 19:27:25;;;;;;;34.38;20.73;;;;;;;;;;4972275;28;20035;-91
2023/09/12 19:33:34;;;;;;;37.72;21.38;;;;;;;;;;5434392;23;20048;-89
2023/09/12 19:36:37;;;;;;;33.20;21.80;;;;;;;;;;4944339;29;20035;-89
2023/09/12 19:39:53;;;;;;;36.55;23.08;;;;;;;;;;4945549;29;20036;-91
2023/09/12 19:42:44;;;;;;;37.08;22.30;;;;;;;;;;4945640;29;20035;-91
2023/09/12 19:48:34;;;;;;;29.08;20.17;;;;;;;;;;5414424;23;20063;-90
2023/09/12 19:51:17;;;;;;;35.05;22.08;;;;;;;;;;4918590;29;20045;-90
2023/09/12 19:54:20;;;;;;;35.72;24.13;;;;;;;;;;4919607;29;20044;-90
2023/09/12 20:00:16;;;;;;;37.67;24.60;;;;;;;;;;4865146;29;20046;-89
2023/09/12 20:08:13;;;;;;;35.90;23.73;;;;;;;;;;4537574;23;20028;-90
2023/09/12 20:11:16;;;;;;;39.45;24.05;;;;;;;;;;4960575;29;20042;-90
2023/09/12 20:14:00;;;;;;;44.50;24.00;;;;;;;;;;4963440;28;20045;-89
2023/09/12 20:22:31;;;;;;;;;;;;;;;;;;;;;
2023/09/12 20:25:21;;;;;;;44.78;25.98;;;;;;;;;;4938485;29;20097;-89
2023/09/12 20:28:04;;;;;;;39.00;23.10;;;;;;;;;;4938428;29;20059;-89
2023/09/12 20:30:31;;;;;;;40.65;25.13;;;;;;;;;;4927472;29;20055;-89
2023/09/12 20:33:00;;;;;;;49.05;28.17;;;;;;;;;;4927641;29;20308;-89
2023/09/12 20:35:28;;;;;;;47.13;29.13;;;;;;;;;;4946322;29;20048;-90
2023/09/12 20:37:58;;;;;;;41.38;25.70;;;;;;;;;;4930772;29;20047;-87
2023/09/12 20:40:28;;;;;;;38.75;24.50;;;;;;;;;;4947790;29;20058;-88
2023/09/12 20:42:55;;;;;;;33.40;21.42;;;;;;;;;;4945423;29;20097;-88
2023/09/12 20:45:26;;;;;;;31.65;21.02;;;;;;;;;;4930907;29;20035;-89
2023/09/12 20:47:53;;;;;;;40.42;25.38;;;;;;;;;;4929991;29;20058;-88
2023/09/12 20:50:28;;;;;;;42.83;25.23;;;;;;;;;;4930547;29;20043;-89
2023/09/12 20:52:57;;;;;;;46.67;27.00;;;;;;;;;;4928925;29;20059;-89
2023/09/12 20:55:29;;;;;;;47.08;27.65;;;;;;;;;;4927523;29;20051;-89
2023/09/12 20:58:00;;;;;;;41.20;26.00;;;;;;;;;;4928000;29;20282;-88
2023/09/12 21:00:28;;;;;;;46.08;26.38;;;;;;;;;;4927098;29;20174;-88
2023/09/12 21:03:08;;;;;;;44.15;26.58;;;;;;;;;;4944724;29;20503;-88
2023/09/12 21:05:39;;;;;;;40.80;25.40;;;;;;;;;;4945648;29;20055;-88
2023/09/12 21:08:07;;;;;;;34.80;22.38;;;;;;;;;;4928715;29;20055;-89
2023/09/12 21:10:34;;;;;;;45.10;26.90;;;;;;;;;;4927687;29;20056;-88
2023/09/12 21:13:02;;;;;;;45.72;26.05;;;;;;;;;;4926454;29;20047;-88
2023/09/12 21:15:29;;;;;;;45.42;26.38;;;;;;;;;;4941892;29;20441;-88
2023/09/12 21:17:57;;;;;;;44.50;25.92;;;;;;;;;;4925077;29;20060;-89
2023/09/12 21:20:27;;;;;;;39.80;24.85;;;;;;;;;;4925649;29;20076;-88
2023/09/12 21:22:55;;;;;;;39.50;24.70;;;;;;;;;;4926574;29;20060;-88
2023/09/12 21:25:22;;;;;;;38.60;23.63;;;;;;;;;;4943617;29;20324;-88
2023/09/12 21:27:49;;;;;;;41.13;25.00;;;;;;;;;;4926766;29;20063;-89
2023/09/12 21:30:17;;;;;;;40.50;25.52;;;;;;;;;;4932392;29;20170;-89
2023/09/12 21:32:44;;;;;;;43.72;24.15;;;;;;;;;;4927779;29;20063;-89
2023/09/12 21:35:14;;;;;;;38.53;22.83;;;;;;;;;;4927472;29;20063;-89
2023/09/12 21:37:45;;;;;;;35.83;22.35;;;;;;;;;;4926962;29;20055;-89
2023/09/12 21:40:13;;;;;;;37.80;23.85;;;;;;;;;;4941393;29;20067;-89
2023/09/12 21:42:50;;;;;;;36.80;22.63;;;;;;;;;;4928363;29;20086;-88
2023/09/12 21:45:17;;;;;;;39.45;23.17;;;;;;;;;;4928650;29;20052;-87
2023/09/12 21:47:44;;;;;;;37.50;22.63;;;;;;;;;;4931981;29;20047;-88
2023/09/12 21:50:12;;;;;;;39.00;21.20;;;;;;;;;;4935321;29;20428;-88
2023/09/12 21:52:40;;;;;;;35.15;20.88;;;;;;;;;;4924805;29;20120;-88
2023/09/12 21:55:07;;;;;;;32.88;21.98;;;;;;;;;;4925564;29;20047;-88
2023/09/12 21:57:35;;;;;;;39.15;25.35;;;;;;;;;;4943567;29;20143;-89
2023/09/12 22:00:22;;;;;;;41.95;22.85;;;;;;;;;;4926880;29;20119;-88
2023/09/12 22:02:53;;;;;;;40.45;24.52;;;;;;;;;;4924536;29;20516;-88
2023/09/12 22:05:21;;;;;;;35.75;21.67;;;;;;;;;;4925823;29;20592;-88
2023/09/12 22:07:49;;;;;;;38.05;22.63;;;;;;;;;;4927791;29;20044;-88
2023/09/12 22:10:17;;;;;;;37.97;22.05;;;;;;;;;;4927128;29;20048;-87
2023/09/12 22:12:45;;;;;;;33.70;21.77;;;;;;;;;;4946055;29;20150;-88
2023/09/12 22:15:12;;;;;;;33.97;20.15;;;;;;;;;;4926252;29;20051;-88
2023/09/12 22:17:43;;;;;;;36.65;21.73;;;;;;;;;;4934536;29;20067;-87
2023/09/12 22:20:15;;;;;;;32.08;20.77;;;;;;;;;;4935371;29;20058;-87
2023/09/12 22:22:45;;;;;;;28.52;20.48;;;;;;;;;;4934192;29;20203;-87
2023/09/12 22:25:14;;;;;;;34.13;20.50;;;;;;;;;;4936000;29;20058;-87
2023/09/12 22:27:43;;;;;;;35.05;20.45;;;;;;;;;;4936264;29;20055;-87
2023/09/12 22:30:24;;;;;;;30.23;17.77;;;;;;;;;;4934803;29;20086;-87
2023/09/12 22:32:53;;;;;;;28.98;19.67;;;;;;;;;;4936725;29;20055;-88
2023/09/12 22:35:24;;;;;;;28.67;19.30;;;;;;;;;;4936251;29;20051;-86
2023/09/12 22:37:53;;;;;;;30.67;19.92;;;;;;;;;;4936216;29;20059;-86
2023/09/12 22:40:23;;;;;;;31.23;20.25;;;;;;;;;;4936294;29;20138;-87
2023/09/12 22:42:56;;;;;;;30.90;19.70;;;;;;;;;;4935946;29;20059;-87
2023/09/12 22:45:44;;;;;;;35.25;22.77;;;;;;;;;;4954612;29;20071;-87
2023/09/12 22:48:15;;;;;;;37.03;23.42;;;;;;;;;;4936260;29;20047;-87
2023/09/12 22:50:52;;;;;;;34.83;22.00;;;;;;;;;;4937330;29;20051;-91
2023/09/12 22:53:19;;;;;;;40.90;23.75;;;;;;;;;;4935276;29;20062;-89
2023/09/12 22:55:47;;;;;;;36.45;21.38;;;;;;;;;;4952232;29;20142;-89
2023/09/12 22:58:23;;;;;;;34.95;23.95;;;;;;;;;;4952106;29;20131;-89
2023/09/12 23:00:51;;;;;;;41.92;25.63;;;;;;;;;;4935730;29;20055;-89
2023/09/12 23:03:22;;;;;;;38.05;24.17;;;;;;;;;;4935856;29;20060;-89
2023/09/12 23:05:49;;;;;;;35.40;22.15;;;;;;;;;;4938738;29;20259;-89
2023/09/12 23:08:16;;;;;;;37.42;22.23;;;;;;;;;;4940222;29;20158;-89
2023/09/12 23:10:44;;;;;;;34.80;21.88;;;;;;;;;;4939146;29;20048;-88
2023/09/12 23:13:18;;;;;;;33.80;22.42;;;;;;;;;;4940717;29;20051;-89
2023/09/12 23:15:47;;;;;;;38.83;23.40;;;;;;;;;;4940635;29;20055;-88
2023/09/12 23:18:17;;;;;;;37.70;25.13;;;;;;;;;;4943204;29;20047;-88
2023/09/12 23:20:58;;;;;;;43.25;27.63;;;;;;;;;;4933594;29;20071;-88
2023/09/12 23:23:25;;;;;;;41.15;24.23;;;;;;;;;;4910996;29;20261;-87
2023/09/12 23:25:53;;;;;;;37.95;24.10;;;;;;;;;;4912866;29;20058;-88
2023/09/12 23:28:21;;;;;;;43.80;27.35;;;;;;;;;;4928153;29;20054;-88
2023/09/12 23:30:48;;;;;;;48.03;27.67;;;;;;;;;;4928800;29;20052;-88
2023/09/12 23:36:37;;;;;;;48.97;28.48;;;;;;;;;;4929266;29;20039;-87
2023/09/12 23:39:05;;;;;;;57.22;31.55;;;;;;;;;;4929886;29;20139;-88
2023/09/12 23:41:41;;;;;;;48.92;29.27;;;;;;;;;;4914516;29;20147;-89
2023/09/12 23:44:07;;;;;;;;;;;;;;;;;;4912662;29;20052;-89
2023/09/12 23:46:34;;;;;;;46.88;27.30;;;;;;;;;;4911909;29;19995;-89
2023/09/12 23:49:03;;;;;;;43.60;26.30;;;;;;;;;;4927826;29;20052;-89
2023/09/12 23:51:30;;;;;;;44.50;27.52;;;;;;;;;;4910302;29;20055;-89
2023/09/12 23:53:57;;;;;;;44.75;27.38;;;;;;;;;;4911188;29;20052;-89
2023/09/12 23:56:25;;;;;;;39.10;24.67;;;;;;;;;;4926789;29;20051;-89
2023/09/12 23:58:52;;;;;;;43.10;26.48;;;;;;;;;;4911991;29;20179;-88
